Time;durP1;ratioP1;P1;durP2;ratioP2;P2;SDS_P1;SDS_P2;PMS_P1;PMS_P2;Temp;Humidity;BMP_temperature;BMP_pressure;BME280_temperature;BME280_humidity;BME280_pressure;Samples;Min_cycle;Max_cycle;Signal;HPM_P1;HPM_P2
2021/12/20 00:00:40;;;;;;;6.85;4.82;;;;;;;2.80;69.30;99113.78;5085671;28;20060;-65
2021/12/20 00:03:15;;;;;;;8.13;5.40;;;;;;;1.47;69.47;98898.59;5085146;28;20290;-64
2021/12/20 00:05:48;;;;;;;7.30;4.65;;;;;;;2.82;69.27;99109.34;5085718;28;20056;-64
2021/12/20 00:08:22;;;;;;;7.28;4.95;;;;;;;2.83;69.45;99105.84;5085159;28;20071;-65
2021/12/20 00:10:55;;;;;;;5.22;4.03;;;;;;;2.83;68.99;99092.75;5085355;28;20063;-65
2021/12/20 00:13:28;;;;;;;6.25;4.75;;;;;;;2.84;69.26;99096.22;5085356;28;20086;-65
2021/12/20 00:16:01;;;;;;;7.28;5.07;;;;;;;2.81;69.56;99107.63;5085046;28;20060;-65
2021/12/20 00:18:36;;;;;;;6.60;4.82;;;;;;;2.83;68.94;99100.59;5085020;28;20060;-65
2021/12/20 00:21:09;;;;;;;6.15;4.88;;;;;;;2.83;68.88;99104.97;5085209;28;20072;-65
2021/12/20 00:23:42;;;;;;;6.15;4.93;;;;;;;2.83;69.00;99103.22;5085526;28;20060;-65
2021/12/20 00:26:15;;;;;;;7.45;4.60;;;;;;;2.87;68.71;99093.53;5085217;28;20064;-65
2021/12/20 00:28:48;;;;;;;7.25;5.40;;;;;;;2.91;68.49;99089.06;5085455;28;20105;-65
2021/12/20 00:31:21;;;;;;;5.78;4.47;;;;;;;2.67;68.60;99053.97;5085421;28;20060;-65
2021/12/20 00:33:55;;;;;;;6.10;4.38;;;;;;;2.93;68.79;99095.97;5085144;28;20071;-65
2021/12/20 00:36:30;;;;;;;5.38;4.03;;;;;;;2.98;68.37;99101.06;5084885;28;20060;-65
2021/12/20 00:41:51;;;;;;;5.28;4.57;;;;;;;2.96;68.30;99124.66;5084708;28;20261;-65
2021/12/20 00:44:21;;;;;;;6.03;3.72;;;;;;;3.02;68.01;99118.41;5084718;28;20056;-65
2021/12/20 00:46:51;;;;;;;6.45;4.25;;;;;;;3.05;68.12;99113.09;5086423;28;20067;-65
2021/12/20 00:49:23;;;;;;;5.93;3.80;;;;;;;3.06;68.00;99125.28;5088559;28;20080;-65
2021/12/20 00:51:52;;;;;;;5.22;3.95;;;;;;;3.07;68.02;99125.22;5088195;28;20246;-65
2021/12/20 00:54:22;;;;;;;6.25;4.60;;;;;;;3.07;68.88;99125.22;5088679;28;20067;-64
2021/12/20 00:56:52;;;;;;;5.75;3.92;;;;;;;3.11;68.67;99126.00;5088136;28;20060;-65
2021/12/20 00:59:23;;;;;;;6.53;4.32;;;;;;;3.11;68.72;99137.34;5088099;28;20064;-65
2021/12/20 01:01:53;;;;;;;7.32;4.35;;;;;;;3.13;68.73;99124.19;5087999;28;20259;-65
2021/12/20 01:04:25;;;;;;;6.57;4.35;;;;;;;3.15;68.44;99138.09;5088030;28;20056;-65
2021/12/20 01:06:53;;;;;;;5.03;4.22;;;;;;;3.12;68.67;99152.13;5088264;28;20075;-65
2021/12/20 01:09:24;;;;;;;5.22;3.63;;;;;;;3.12;68.53;99140.81;5087706;28;20083;-65
2021/12/20 01:12:01;;;;;;;4.90;3.83;;;;;;;3.05;69.35;99161.06;5087882;28;20060;-65
2021/12/20 01:14:33;;;;;;;6.43;4.05;;;;;;;3.04;69.47;99161.13;5087643;28;20080;-64
2021/12/20 01:17:07;;;;;;;5.55;3.78;;;;;;;3.01;69.94;99172.53;5087797;28;20066;-65
2021/12/20 01:19:41;;;;;;;6.38;4.68;;;;;;;2.95;71.46;99172.69;5087625;28;20269;-64
2021/12/20 01:22:14;;;;;;;6.18;4.72;;;;;;;2.82;72.27;99185.25;5087901;28;20229;-65
2021/12/20 01:24:47;;;;;;;6.15;4.35;;;;;;;2.78;72.03;99199.31;5087903;28;20316;-65
2021/12/20 01:27:21;;;;;;;4.53;3.78;;;;;;;2.74;72.34;99217.75;5087900;28;20225;-65
2021/12/20 01:29:54;;;;;;;5.50;3.80;;;;;;;2.69;73.15;99209.16;5087571;28;20070;-65
2021/12/20 01:32:27;;;;;;;6.18;3.83;;;;;;;1.95;72.64;99143.88;5088077;28;20087;-65
2021/12/20 01:35:01;;;;;;;5.07;3.70;;;;;;;2.71;72.83;99254.47;5087773;28;20324;-65
2021/12/20 01:37:34;;;;;;;6.05;3.90;;;;;;;2.69;73.40;99264.97;5087405;28;20266;-65
2021/12/20 01:40:11;;;;;;;6.50;4.38;;;;;;;2.58;74.16;99267.00;5087379;28;20071;-64
2021/12/20 01:42:46;;;;;;;4.22;3.63;;;;;;;1.90;74.04;99188.41;5087486;28;20082;-65
2021/12/20 01:45:22;;;;;;;4.93;3.75;;;;;;;2.50;74.02;99263.72;5087554;28;20261;-65
2021/12/20 01:48:04;;;;;;;3.60;2.45;;;;;;;2.48;73.86;99263.75;5087246;28;20071;-65
2021/12/20 01:53:31;;;;;;;2.80;1.80;;;;;;;2.38;74.63;99241.31;5087100;28;20056;-65
2021/12/20 01:56:05;;;;;;;2.03;1.38;;;;;;;2.35;74.96;99259.69;5087071;28;20060;-64
2021/12/20 01:58:39;;;;;;;2.00;1.58;;;;;;;2.33;74.59;99261.50;5086638;28;20060;-65
2021/12/20 02:01:22;;;;;;;2.42;1.42;;;;;;;2.33;74.52;99258.88;5086879;28;20315;-65
2021/12/20 02:03:59;;;;;;;2.42;1.50;;;;;;;2.32;74.42;99246.69;5087192;28;20346;-65
2021/12/20 02:06:38;;;;;;;2.38;1.77;;;;;;;2.33;74.83;99230.13;5086841;28;20076;-65
2021/12/20 02:09:15;;;;;;;2.33;1.40;;;;;;;2.08;74.71;99189.75;5086528;28;20086;-65
2021/12/20 02:11:50;;;;;;;2.10;1.35;;;;;;;2.29;74.88;99225.84;5086755;28;20060;-65
2021/12/20 02:14:23;;;;;;;1.83;1.27;;;;;;;2.31;74.59;99233.66;5086965;28;20162;-65
2021/12/20 02:16:56;;;;;;;1.83;1.27;;;;;;;2.30;74.61;99224.09;5086635;28;20075;-65
2021/12/20 02:19:27;;;;;;;2.03;1.48;;;;;;;2.32;74.64;99225.78;5086572;28;20067;-65
2021/12/20 02:21:58;;;;;;;1.50;1.10;;;;;;;2.31;74.79;99231.03;5086648;28;20087;-65
2021/12/20 02:24:26;;;;;;;1.83;1.20;;;;;;;2.29;75.07;99235.44;5087449;28;20076;-65
2021/12/20 02:26:57;;;;;;;2.25;1.30;;;;;;;2.29;74.76;99232.84;5086288;28;20075;-65
2021/12/20 02:29:42;;;;;;;2.92;1.75;;;;;;;2.28;75.18;99226.75;5086342;28;20056;-65
2021/12/20 02:38:01;;;;;;;2.38;1.52;;;;;;;2.32;74.12;99225.78;5085473;28;20067;-65
2021/12/20 02:40:34;;;;;;;2.47;1.58;;;;;;;2.33;73.95;99231.88;5086759;28;20060;-65
2021/12/20 02:43:11;;;;;;;1.67;1.13;;;;;;;2.30;74.34;99237.16;5086022;28;20320;-65
2021/12/20 02:45:44;;;;;;;2.22;1.40;;;;;;;2.32;74.32;99235.38;5086339;28;20056;-65
2021/12/20 02:48:16;;;;;;;2.20;1.40;;;;;;;2.36;74.47;99234.41;5086330;28;20040;-65
2021/12/20 02:50:49;;;;;;;3.05;1.73;;;;;;;2.35;74.58;99244.00;5085527;28;20059;-65
2021/12/20 02:53:22;;;;;;;2.50;1.58;;;;;;;2.37;74.17;99236.97;5085996;28;20055;-65
2021/12/20 02:55:55;;;;;;;2.40;1.58;;;;;;;2.34;73.89;99234.44;5085179;28;20041;-65
2021/12/20 02:58:27;;;;;;;3.15;1.95;;;;;;;2.36;73.40;99242.25;5086181;28;20041;-65
2021/12/20 03:00:59;;;;;;;2.95;1.60;;;;;;;2.34;74.19;99239.69;5086017;28;20040;-65
2021/12/20 03:03:31;;;;;;;4.43;1.80;;;;;;;2.30;74.00;99248.50;5085728;28;20047;-65
2021/12/20 03:06:09;;;;;;;3.67;1.88;;;;;;;2.28;74.55;99246.81;5085810;28;20055;-65
2021/12/20 03:08:45;;;;;;;3.28;1.77;;;;;;;2.30;74.23;99252.84;5084802;28;20204;-65
2021/12/20 03:11:19;;;;;;;2.58;1.80;;;;;;;2.31;74.59;99258.06;5085747;28;20048;-65
2021/12/20 03:13:56;;;;;;;2.55;1.88;;;;;;;2.36;74.20;99264.03;5085979;28;20296;-65
2021/12/20 03:16:29;;;;;;;2.45;1.70;;;;;;;2.14;73.84;99227.06;5085946;28;20036;-65
2021/12/20 03:19:01;;;;;;;3.25;2.30;;;;;;;2.42;73.52;99270.88;5085659;28;20041;-65
2021/12/20 03:21:33;;;;;;;3.28;1.73;;;;;;;2.41;74.03;99272.63;5085878;28;20288;-65
2021/12/20 03:24:08;;;;;;;2.80;1.90;;;;;;;2.44;73.51;99274.31;5085781;28;20045;-65
2021/12/20 03:26:40;;;;;;;3.95;2.40;;;;;;;2.46;73.65;99277.75;5085945;28;20048;-65
2021/12/20 03:29:12;;;;;;;3.03;1.67;;;;;;;2.48;73.22;99315.22;5085543;28;20204;-65
2021/12/20 03:31:45;;;;;;;3.15;2.25;;;;;;;2.48;73.13;99283.81;5085523;28;20300;-65
2021/12/20 03:34:18;;;;;;;4.25;2.58;;;;;;;2.20;72.78;99271.38;5085720;28;20049;-65
2021/12/20 03:36:51;;;;;;;6.13;2.53;;;;;;;2.47;73.18;99296.03;5085702;28;20045;-65
2021/12/20 03:39:25;;;;;;;3.00;1.83;;;;;;;2.19;73.41;99242.66;5085695;28;20049;-65
2021/12/20 03:41:57;;;;;;;5.13;2.15;;;;;;;2.50;72.99;99300.34;5085339;28;20041;-65
2021/12/20 03:44:31;;;;;;;2.92;1.85;;;;;;;2.52;73.12;99301.16;5085362;28;20041;-65
2021/12/20 03:47:03;;;;;;;3.85;2.10;;;;;;;2.54;73.00;99295.00;5085602;28;20048;-65
2021/12/20 03:49:33;;;;;;;2.20;1.48;;;;;;;2.61;72.84;99305.31;5085631;28;20134;-65
2021/12/20 03:52:04;;;;;;;3.13;1.67;;;;;;;2.58;73.17;99301.00;5085610;28;20055;-65
2021/12/20 03:54:35;;;;;;;2.72;1.73;;;;;;;2.62;73.19;99307.03;5085622;28;20040;-65
2021/12/20 03:57:04;;;;;;;3.83;1.92;;;;;;;2.62;72.80;99307.91;5085531;28;20049;-65
2021/12/20 03:59:34;;;;;;;2.95;1.98;;;;;;;2.62;73.13;99322.72;5085518;28;20056;-65
2021/12/20 04:02:05;;;;;;;3.47;1.98;;;;;;;2.29;73.05;99279.91;5085423;28;20044;-65
2021/12/20 04:04:34;;;;;;;3.05;1.60;;;;;;;2.60;73.36;99319.28;5085241;28;20041;-65
2021/12/20 04:07:05;;;;;;;2.78;1.77;;;;;;;2.57;73.60;99319.38;5085424;28;20067;-65
2021/12/20 04:09:36;;;;;;;2.60;1.90;;;;;;;2.59;73.42;99307.97;5085093;28;20060;-65
2021/12/20 04:12:06;;;;;;;2.60;1.60;;;;;;;2.61;73.15;99306.19;5085380;28;20051;-65
2021/12/20 04:14:35;;;;;;;3.42;1.90;;;;;;;2.64;73.15;99321.81;5085276;28;20090;-65
2021/12/20 04:17:05;;;;;;;2.90;1.80;;;;;;;2.65;73.34;99315.66;5085306;28;20055;-65
2021/12/20 04:19:36;;;;;;;4.47;2.03;;;;;;;2.60;73.80;99316.69;5085345;28;20224;-65
2021/12/20 04:22:06;;;;;;;3.38;1.90;;;;;;;2.62;73.56;99322.72;5088996;28;20052;-65
2021/12/20 04:24:37;;;;;;;2.63;1.95;;;;;;;2.63;73.23;99324.44;5088766;28;20086;-65
2021/12/20 04:27:06;;;;;;;3.20;2.40;;;;;;;2.66;72.94;99325.25;5089017;28;20040;-65
2021/12/20 04:29:37;;;;;;;3.47;1.90;;;;;;;2.64;73.37;99321.81;5088718;28;20177;-65
2021/12/20 04:32:07;;;;;;;3.40;2.20;;;;;;;2.68;73.02;99328.69;5088925;28;20056;-65
2021/12/20 04:34:37;;;;;;;3.03;2.30;;;;;;;2.70;72.77;99319.03;5088894;28;20044;-65
2021/12/20 04:37:08;;;;;;;2.63;2.08;;;;;;;2.70;72.95;99313.81;5088798;28;20049;-65
2021/12/20 04:39:39;;;;;;;3.05;2.40;;;;;;;2.66;73.49;99309.53;5088852;28;20292;-65
2021/12/20 04:42:09;;;;;;;3.85;2.30;;;;;;;2.66;73.04;99321.75;5088684;28;20059;-65
2021/12/20 04:44:39;;;;;;;3.30;2.30;;;;;;;2.62;73.12;99322.72;5088651;28;20053;-65
2021/12/20 04:47:08;;;;;;;3.42;2.38;;;;;;;2.58;73.63;99321.09;5088665;28;20047;-65
2021/12/20 04:49:39;;;;;;;3.35;2.33;;;;;;;2.58;73.19;99324.56;5088349;28;20228;-65
2021/12/20 04:52:09;;;;;;;2.90;2.15;;;;;;;2.58;73.48;99323.69;5088539;28;20040;-65
2021/12/20 04:54:41;;;;;;;2.88;2.00;;;;;;;2.52;73.37;99332.56;5088214;28;20090;-65
2021/12/20 04:57:10;;;;;;;3.75;2.38;;;;;;;1.99;73.00;99243.09;5088469;28;20063;-65
2021/12/20 04:59:40;;;;;;;3.80;2.15;;;;;;;2.46;73.19;99337.94;5088416;28;20315;-65
2021/12/20 05:02:10;;;;;;;3.60;2.15;;;;;;;2.42;73.09;99347.59;5088062;28;20041;-65
2021/12/20 05:04:41;;;;;;;3.85;2.10;;;;;;;2.37;73.01;99341.59;5088006;28;20040;-65
2021/12/20 05:07:10;;;;;;;3.70;2.30;;;;;;;2.38;72.86;99335.47;5088202;28;20059;-65
2021/12/20 05:09:42;;;;;;;3.50;2.28;;;;;;;2.40;72.69;99341.53;5087845;28;20313;-65
2021/12/20 05:12:12;;;;;;;3.63;2.55;;;;;;;2.38;72.70;99347.69;5088214;28;20044;-65
2021/12/20 05:14:43;;;;;;;3.10;2.00;;;;;;;2.39;72.36;99344.19;5088673;28;20043;-65
2021/12/20 05:17:13;;;;;;;3.67;2.50;;;;;;;2.40;72.21;99351.13;5088023;28;20109;-65
2021/12/20 05:19:42;;;;;;;4.50;2.17;;;;;;;2.38;72.00;99358.16;5088022;28;20053;-65
2021/12/20 05:22:13;;;;;;;3.25;2.03;;;;;;;2.12;71.82;99317.75;5087731;28;20048;-65
2021/12/20 05:24:44;;;;;;;6.35;2.90;;;;;;;2.37;71.54;99365.16;5087779;28;20044;-65
2021/12/20 05:27:12;;;;;;;2.58;1.75;;;;;;;2.36;71.37;99359.94;5087931;28;20041;-65
2021/12/20 05:29:43;;;;;;;3.80;2.03;;;;;;;2.35;71.14;99361.72;5087837;28;20048;-65
2021/12/20 05:32:13;;;;;;;4.60;2.53;;;;;;;2.33;71.05;99365.25;5086879;28;20106;-65
2021/12/20 05:34:43;;;;;;;3.30;2.50;;;;;;;2.31;71.00;99367.03;5087442;28;20049;-65
2021/12/20 05:37:15;;;;;;;3.33;2.25;;;;;;;2.34;70.98;99377.44;5087675;28;20048;-65
2021/12/20 05:39:45;;;;;;;5.13;2.67;;;;;;;2.27;71.13;99402.00;5087607;28;20045;-65
2021/12/20 05:42:14;;;;;;;4.82;2.55;;;;;;;2.23;71.26;99396.81;5087330;28;20043;-65
2021/12/20 05:44:44;;;;;;;3.45;2.05;;;;;;;2.20;71.46;99388.19;5087404;28;20362;-65
2021/12/20 05:47:14;;;;;;;5.35;2.15;;;;;;;2.16;71.50;99391.75;5087380;28;20048;-65
2021/12/20 05:49:45;;;;;;;3.33;2.10;;;;;;;2.16;71.23;99395.22;5087292;28;20059;-65
2021/12/20 05:52:15;;;;;;;3.22;2.30;;;;;;;0.84;70.74;99176.66;5087244;28;20049;-65
2021/12/20 05:54:46;;;;;;;3.00;1.98;;;;;;;2.16;70.84;99433.59;5087370;28;20102;-65
2021/12/20 05:57:16;;;;;;;4.20;2.33;;;;;;;2.18;70.92;99403.03;5087331;28;20060;-65
2021/12/20 05:59:46;;;;;;;4.80;2.28;;;;;;;2.14;70.83;99415.31;5087073;28;20059;-65
2021/12/20 06:02:16;;;;;;;3.80;2.33;;;;;;;2.09;70.90;99414.53;5087109;28;20300;-65
2021/12/20 06:04:50;;;;;;;6.22;2.85;;;;;;;2.12;71.01;99418.84;5087031;28;20048;-65
2021/12/20 06:07:23;;;;;;;6.00;2.80;;;;;;;2.06;71.09;99416.38;5086599;28;20040;-65
2021/12/20 06:09:56;;;;;;;3.70;2.40;;;;;;;2.06;71.24;99418.97;5086580;28;20063;-65
2021/12/20 06:12:29;;;;;;;4.00;2.28;;;;;;;2.06;71.18;99409.38;5086629;28;20048;-65
2021/12/20 06:15:01;;;;;;;3.72;2.10;;;;;;;2.07;70.59;99415.47;5086611;28;20051;-65
2021/12/20 06:17:34;;;;;;;3.80;2.10;;;;;;;2.08;70.70;99420.66;5086882;28;20048;-65
2021/12/20 06:20:09;;;;;;;6.78;2.38;;;;;;;2.00;70.33;99417.34;5086840;28;20204;-65
2021/12/20 06:22:42;;;;;;;3.22;2.03;;;;;;;1.97;70.42;99422.63;5086807;28;20041;-65
2021/12/20 06:25:16;;;;;;;3.65;2.10;;;;;;;1.95;70.08;99427.03;5086360;28;20240;-65
2021/12/20 06:27:48;;;;;;;3.60;2.10;;;;;;;1.98;69.98;99433.94;5086432;28;20047;-64
2021/12/20 06:30:20;;;;;;;3.60;2.10;;;;;;;1.96;69.92;99422.66;5085643;28;20041;-65
2021/12/20 06:32:53;;;;;;;3.83;2.30;;;;;;;1.93;69.86;99431.44;5086243;28;20040;-65
2021/12/20 06:35:25;;;;;;;3.63;2.47;;;;;;;1.93;69.87;99435.78;5086160;28;20292;-65
2021/12/20 06:38:02;;;;;;;3.08;2.00;;;;;;;1.90;69.80;99426.25;5086203;28;20037;-65
2021/12/20 06:40:36;;;;;;;4.68;2.22;;;;;;;1.84;69.95;99423.75;5086409;28;20048;-64
2021/12/20 06:43:08;;;;;;;4.35;2.30;;;;;;;1.87;69.93;99435.00;5086218;28;20048;-65
2021/12/20 06:45:41;;;;;;;6.45;2.58;;;;;;;0.54;69.67;99216.34;5085749;28;20041;-65
2021/12/20 06:48:14;;;;;;;3.72;2.13;;;;;;;1.82;69.60;99438.59;5085621;28;20040;-65
2021/12/20 06:50:46;;;;;;;4.05;2.00;;;;;;;1.83;69.60;99449.03;5085773;28;20041;-65
2021/12/20 06:53:18;;;;;;;6.57;3.67;;;;;;;1.84;69.50;99447.28;5086221;28;20059;-66
2021/12/20 06:55:52;;;;;;;3.83;2.10;;;;;;;1.79;69.18;99449.13;5085885;28;20107;-65
2021/12/20 06:58:24;;;;;;;5.65;2.30;;;;;;;1.80;69.48;99441.25;5086120;28;20048;-66
2021/12/20 07:00:57;;;;;;;4.50;2.92;;;;;;;1.80;69.47;99456.06;5085791;28;20142;-65
2021/12/20 07:03:29;;;;;;;5.07;2.88;;;;;;;1.80;69.55;99462.16;5085961;28;20040;-66
2021/12/20 07:06:01;;;;;;;5.57;2.10;;;;;;;1.77;69.78;99461.34;5085975;28;20048;-66
2021/12/20 07:08:34;;;;;;;4.25;2.50;;;;;;;1.79;69.92;99464.78;5085339;28;20040;-66
2021/12/20 07:11:08;;;;;;;4.05;2.50;;;;;;;1.81;69.89;99457.78;5085646;28;20040;-66
2021/12/20 07:13:41;;;;;;;2.80;2.42;;;;;;;1.28;69.74;99383.81;5086114;28;20048;-66
2021/12/20 07:16:16;;;;;;;4.28;2.13;;;;;;;1.80;69.98;99458.69;5085468;28;20044;-66
2021/12/20 07:18:48;;;;;;;4.60;2.17;;;;;;;1.82;69.72;99455.16;5085542;28;20292;-66
2021/12/20 07:21:20;;;;;;;7.43;2.63;;;;;;;1.83;69.22;99454.25;5085816;28;20048;-66
2021/12/20 07:23:52;;;;;;;3.92;2.55;;;;;;;1.82;68.89;99462.97;5085676;28;20048;-66
2021/12/20 07:26:26;;;;;;;3.80;2.30;;;;;;;1.80;68.24;99469.13;5085494;28;20040;-66
2021/12/20 07:28:58;;;;;;;4.80;2.80;;;;;;;1.80;68.42;99472.59;5085493;28;20041;-66
2021/12/20 07:31:31;;;;;;;7.07;2.50;;;;;;;1.80;67.88;99466.50;5085749;28;20040;-66
2021/12/20 07:34:04;;;;;;;4.30;2.72;;;;;;;1.81;67.89;99468.25;5085501;28;20044;-66
2021/12/20 07:36:36;;;;;;;6.53;2.25;;;;;;;1.80;67.74;99477.84;5085587;28;20293;-66
2021/12/20 07:39:08;;;;;;;3.60;2.20;;;;;;;1.81;68.05;99484.78;5085265;28;20288;-66
2021/12/20 07:41:42;;;;;;;4.10;2.53;;;;;;;-0.15;67.70;99143.63;5085472;28;20049;-66
2021/12/20 07:44:15;;;;;;;5.17;2.70;;;;;;;1.85;67.66;99476.00;5085568;28;20044;-66
2021/12/20 07:46:47;;;;;;;3.67;2.40;;;;;;;1.87;67.54;99478.59;5085484;28;20174;-66
2021/12/20 07:49:20;;;;;;;5.88;2.75;;;;;;;1.94;67.42;99474.09;5085446;28;20060;-66
2021/12/20 07:51:53;;;;;;;5.13;2.15;;;;;;;2.04;66.46;99473.03;5084995;28;20063;-65
2021/12/20 07:54:25;;;;;;;3.88;2.40;;;;;;;2.23;66.43;99459.59;5085426;28;20044;-66
2021/12/20 07:56:59;;;;;;;4.60;2.95;;;;;;;2.41;66.26;99470.56;5089002;28;20040;-66
2021/12/20 07:59:31;;;;;;;5.33;2.23;;;;;;;2.59;65.68;99482.41;5089603;28;20178;-66
2021/12/20 08:02:04;;;;;;;7.15;2.25;;;;;;;2.48;65.16;99436.41;5089191;28;20297;-65
2021/12/20 08:04:36;;;;;;;4.15;2.40;;;;;;;2.90;64.20;99470.38;5089233;28;20318;-65
2021/12/20 08:07:09;;;;;;;7.63;2.85;;;;;;;3.04;64.43;99463.09;5089155;28;20049;-65
2021/12/20 08:09:41;;;;;;;5.28;2.20;;;;;;;3.20;64.00;99474.94;5088964;28;20304;-66
2021/12/20 08:12:15;;;;;;;4.00;2.55;;;;;;;3.37;63.63;99471.91;5089214;28;20040;-65
2021/12/20 08:14:47;;;;;;;4.53;3.20;;;;;;;3.50;63.18;99483.81;5088986;28;20044;-66
2021/12/20 08:17:19;;;;;;;4.45;3.35;;;;;;;3.50;63.00;99469.84;5088760;28;20037;-66
2021/12/20 08:19:50;;;;;;;6.57;2.70;;;;;;;3.60;62.96;99471.34;5089183;28;20082;-66
2021/12/20 08:22:24;;;;;;;4.75;2.90;;;;;;;3.65;62.34;99458.97;5088971;28;20293;-66
2021/12/20 08:24:55;;;;;;;5.03;2.70;;;;;;;3.73;62.32;99482.38;5088919;28;20059;-66
2021/12/20 08:27:27;;;;;;;5.00;2.92;;;;;;;3.76;62.14;99491.03;5088585;28;20208;-66
2021/12/20 08:29:56;;;;;;;5.50;2.70;;;;;;;3.81;62.00;99493.53;5088789;28;20052;-66
2021/12/20 08:32:26;;;;;;;5.97;2.80;;;;;;;3.84;62.33;99493.44;5088852;28;20090;-66
2021/12/20 08:34:56;;;;;;;3.50;2.40;;;;;;;3.81;62.01;99509.25;5088774;28;20056;-66
2021/12/20 08:37:26;;;;;;;5.05;2.30;;;;;;;3.69;62.45;99459.75;5088773;28;20047;-66
2021/12/20 08:39:57;;;;;;;4.30;2.60;;;;;;;4.00;62.19;99505.25;5088494;28;20036;-66
2021/12/20 08:42:28;;;;;;;4.22;2.42;;;;;;;4.03;61.75;99504.31;5088693;28;20048;-66
2021/12/20 08:44:57;;;;;;;6.30;2.90;;;;;;;4.09;61.54;99505.00;5088565;28;20051;-66
2021/12/20 08:47:27;;;;;;;4.00;2.45;;;;;;;3.88;61.08;99457.53;5088379;28;20040;-65
2021/12/20 08:49:58;;;;;;;5.25;2.25;;;;;;;4.28;61.23;99500.16;5088092;28;20040;-66
2021/12/20 08:52:28;;;;;;;5.00;2.50;;;;;;;4.27;60.56;99503.69;5088103;28;20040;-66
2021/12/20 08:54:58;;;;;;;3.95;2.92;;;;;;;4.34;60.00;99504.38;5088357;28;20044;-66
2021/12/20 08:57:30;;;;;;;4.38;2.53;;;;;;;4.38;59.52;99495.53;5088336;28;20067;-66
2021/12/20 08:59:59;;;;;;;4.13;1.95;;;;;;;4.58;60.66;99497.59;5088110;28;20220;-66
2021/12/20 09:02:30;;;;;;;4.38;3.33;;;;;;;4.73;60.32;99498.00;5088345;28;20056;-66
2021/12/20 09:05:00;;;;;;;8.43;2.75;;;;;;;4.85;59.51;99502.03;5088001;28;20212;-66
2021/12/20 09:07:31;;;;;;;5.47;3.10;;;;;;;4.86;58.95;99509.00;5086911;28;20036;-66
2021/12/20 09:10:01;;;;;;;7.70;3.47;;;;;;;4.97;58.37;99503.47;5087697;28;20064;-66
2021/12/20 09:12:33;;;;;;;4.95;2.60;;;;;;;5.07;58.31;99499.66;5087843;28;20052;-66
2021/12/20 09:15:01;;;;;;;9.82;3.22;;;;;;;5.17;56.89;99501.09;5088103;28;20055;-66
2021/12/20 09:17:32;;;;;;;7.45;3.53;;;;;;;5.15;56.90;99509.94;5088092;28;20304;-66
2021/12/20 09:20:02;;;;;;;6.00;2.85;;;;;;;5.25;57.20;99506.13;5088011;28;20044;-66
2021/12/20 09:22:39;;;;;;;4.13;2.00;;;;;;;5.38;56.69;99497.78;5087825;28;20056;-66
2021/12/20 09:25:11;;;;;;;5.45;2.47;;;;;;;5.46;56.64;99515.94;5087862;28;20044;-66
2021/12/20 09:27:45;;;;;;;5.18;2.58;;;;;;;5.62;55.93;99529.47;5087856;28;20049;-65
2021/12/20 09:30:18;;;;;;;3.87;2.23;;;;;;;5.77;56.32;99508.78;5087815;28;20056;-66
2021/12/20 09:32:50;;;;;;;3.97;2.45;;;;;;;5.90;55.81;99509.25;5087576;28;20067;-66
2021/12/20 09:35:23;;;;;;;8.65;2.72;;;;;;;4.99;55.84;99347.56;5087209;28;20055;-66
2021/12/20 09:37:55;;;;;;;4.35;2.67;;;;;;;5.98;55.00;99512.47;5087615;28;20045;-66
2021/12/20 09:40:33;;;;;;;5.05;3.13;;;;;;;6.08;54.79;99527.03;5087544;28;20190;-66
2021/12/20 09:43:10;;;;;;;3.67;2.38;;;;;;;6.13;54.73;99521.59;5087417;28;20060;-66
2021/12/20 09:45:45;;;;;;;3.67;2.28;;;;;;;6.09;54.56;99526.13;5087112;28;20306;-66
2021/12/20 09:48:18;;;;;;;6.97;2.67;;;;;;;6.12;55.71;99516.41;5087277;28;20040;-66
2021/12/20 09:50:50;;;;;;;5.22;2.60;;;;;;;6.19;55.63;99524.03;5087352;28;20049;-66
2021/12/20 09:53:22;;;;;;;6.63;3.33;;;;;;;6.34;54.83;99514.75;5087116;28;20040;-66
2021/12/20 09:55:55;;;;;;;6.03;2.85;;;;;;;6.36;55.01;99523.44;5087309;28;20044;-66
2021/12/20 09:58:34;;;;;;;6.18;2.72;;;;;;;6.23;53.05;99473.00;5087231;28;20040;-66
2021/12/20 10:01:09;;;;;;;3.20;2.17;;;;;;;6.63;54.04;99503.16;5087207;28;20040;-66
2021/12/20 10:03:44;;;;;;;3.95;2.25;;;;;;;6.72;52.75;99508.09;5087158;28;20285;-66
2021/12/20 10:06:17;;;;;;;7.07;2.28;;;;;;;6.84;52.85;99506.81;5086651;28;20056;-66
2021/12/20 10:08:51;;;;;;;5.03;2.55;;;;;;;6.84;53.36;99512.06;5086841;28;20056;-67
2021/12/20 10:11:26;;;;;;;4.43;2.63;;;;;;;6.50;50.99;99518.53;5087003;28;20059;-66
2021/12/20 10:14:04;;;;;;;;;;;;;;;6.39;48.62;99524.19;5087390;28;20060;-66
2021/12/20 10:16:37;;;;;;;4.50;2.45;;;;;;;6.57;53.78;99517.41;5086887;28;20196;-66
2021/12/20 10:19:29;;;;;;;4.30;2.00;;;;;;;6.52;48.92;99515.84;5086569;28;20041;-66
2021/12/20 10:22:23;;;;;;;3.72;2.00;;;;;;;4.97;49.27;99257.44;5086778;28;20040;-65
2021/12/20 10:24:57;;;;;;;4.38;2.22;;;;;;;6.18;52.71;99532.84;5086018;28;20083;-66
2021/12/20 10:27:33;;;;;;;3.00;1.92;;;;;;;5.87;52.20;99525.13;5086543;28;20045;-66
2021/12/20 10:30:23;;;;;;;3.50;2.00;;;;;;;5.59;50.46;99561.97;5086330;28;20048;-66
2021/12/20 10:32:57;;;;;;;3.75;1.95;;;;;;;5.27;52.26;99505.16;5086545;28;20040;-66
2021/12/20 10:35:42;;;;;;;9.63;2.72;;;;;;;5.23;51.03;99532.44;5086585;28;20319;-66
2021/12/20 10:38:21;;;;;;;;;;;;;;;5.09;50.77;99537.25;5086607;28;20052;-66
2021/12/20 10:40:57;;;;;;;7.95;3.33;;;;;;;4.94;54.18;99535.94;5086173;28;19916;-66
2021/12/20 10:43:35;;;;;;;4.03;1.95;;;;;;;4.84;53.55;99537.09;5086148;28;20048;-66
2021/12/20 10:46:15;;;;;;;4.15;2.13;;;;;;;4.81;52.98;99527.53;5085875;28;20040;-66
2021/12/20 10:48:51;;;;;;;7.63;2.78;;;;;;;4.85;55.01;99533.56;5086028;28;20041;-66
2021/12/20 10:51:26;;;;;;;5.90;2.92;;;;;;;4.69;54.05;99537.53;5085867;28;20041;-66
2021/12/20 10:54:01;;;;;;;3.95;2.05;;;;;;;4.63;55.70;99530.69;5085897;28;20071;-66
2021/12/20 10:56:36;;;;;;;5.93;2.63;;;;;;;4.55;54.68;99532.66;5086056;28;20200;-66
2021/12/20 10:59:11;;;;;;;3.75;2.38;;;;;;;4.59;54.91;99542.16;5086104;28;20059;-66
2021/12/20 11:04:49;;;;;;;4.72;2.58;;;;;;;4.32;55.87;99535.91;5063268;28;20204;-66
2021/12/20 11:10:10;;;;;;;8.20;2.92;;;;;;;4.17;54.65;99534.53;5085478;28;20056;-66
2021/12/20 11:12:38;;;;;;;7.43;3.25;;;;;;;4.13;56.24;99537.28;5085859;28;20029;-66
2021/12/20 11:15:11;;;;;;;4.10;2.40;;;;;;;4.00;54.67;99541.97;5085664;28;20041;-66
2021/12/20 11:17:44;;;;;;;4.05;2.30;;;;;;;3.95;54.98;99546.47;5085484;28;20043;-66
2021/12/20 11:20:18;;;;;;;10.85;3.63;;;;;;;3.17;55.06;99434.84;5085517;28;20048;-66
2021/12/20 11:22:50;;;;;;;;;;;;;;;3.81;53.82;99540.72;5086295;28;20045;-66
2021/12/20 11:25:23;;;;;;;5.15;2.33;;;;;;;3.83;56.12;99554.66;5085291;28;19917;-66
2021/12/20 11:27:56;;;;;;;6.25;3.10;;;;;;;3.80;55.60;99545.09;5084635;28;20040;-66
2021/12/20 11:30:28;;;;;;;4.28;2.47;;;;;;;3.80;56.06;99546.84;5084832;28;20048;-65
2021/12/20 11:33:02;;;;;;;3.72;2.40;;;;;;;3.78;55.40;99543.41;5085575;28;20289;-65
2021/12/20 11:35:34;;;;;;;7.27;2.87;;;;;;;3.79;56.40;99550.38;5085273;28;20040;-66
2021/12/20 11:38:07;;;;;;;3.83;2.20;;;;;;;3.74;55.77;99562.75;5085318;28;20048;-66
2021/12/20 11:40:39;;;;;;;4.40;2.38;;;;;;;3.66;56.15;99546.34;5085175;28;20036;-66
2021/12/20 11:43:12;;;;;;;6.40;2.38;;;;;;;3.65;56.28;99540.22;5085248;28;20052;-65
2021/12/20 11:45:44;;;;;;;4.68;2.42;;;;;;;3.67;56.26;99548.06;5085131;28;20052;-66
2021/12/20 11:48:22;;;;;;;6.07;2.08;;;;;;;3.64;55.12;99542.88;5085460;28;20067;-65
2021/12/20 11:50:57;;;;;;;3.90;2.10;;;;;;;3.65;56.26;99545.47;5085435;28;20276;-66
2021/12/20 11:53:36;;;;;;;4.10;2.10;;;;;;;3.61;55.62;99541.19;5085398;28;20040;-66
2021/12/20 11:56:09;;;;;;;6.40;2.10;;;;;;;3.60;55.93;99551.72;5085414;28;20198;-65
2021/12/20 11:58:47;;;;;;;5.88;2.55;;;;;;;3.61;56.02;99553.44;5085321;28;20047;-66
2021/12/20 12:01:20;;;;;;;5.72;2.50;;;;;;;3.60;56.50;99556.97;5084896;28;20047;-66
2021/12/20 12:03:55;;;;;;;4.72;2.65;;;;;;;3.57;56.15;99551.78;5084932;28;20059;-67
2021/12/20 12:06:30;;;;;;;4.40;3.28;;;;;;;3.58;56.83;99549.13;5084803;28;20041;-66
2021/12/20 12:09:02;;;;;;;5.68;2.20;;;;;;;3.52;55.65;99557.16;5084813;28;20075;-66
2021/12/20 12:11:38;;;;;;;4.07;2.20;;;;;;;3.52;56.18;99551.91;5085018;28;20319;-66
2021/12/20 12:14:33;;;;;;;4.28;2.65;;;;;;;3.48;56.38;99545.88;5084419;28;20040;-66
2021/12/20 12:17:09;;;;;;;5.40;2.60;;;;;;;2.70;56.91;99415.00;5084952;28;20319;-66
2021/12/20 12:19:47;;;;;;;4.40;2.40;;;;;;;3.43;55.71;99541.63;5084667;28;20297;-66
2021/12/20 12:22:34;;;;;;;3.30;1.98;;;;;;;3.43;55.29;99554.75;5085041;28;20048;-65
2021/12/20 12:25:09;;;;;;;5.70;2.75;;;;;;;3.06;55.79;99504.94;5084841;28;20048;-66